Time;durP1;ratioP1;P1;durP2;ratioP2;P2;SDS_P1;SDS_P2;PMS_P1;PMS_P2;Temp;Humidity;BMP_temperature;BMP_pressure;BME280_temperature;BME280_humidity;BME280_pressure;Samples;Min_cycle;Max_cycle;Signal;HPM_P1;HPM_P2
2022/01/06 00:00:28;;;;;;;20.00;3.38;;;3.00;99.90;;;;;;5056694;28;20049;-69
2022/01/06 00:02:54;;;;;;;18.27;2.95;;;2.90;99.90;;;;;;5059330;28;20059;-67
2022/01/06 00:05:19;;;;;;;26.63;4.13;;;2.80;99.90;;;;;;5076663;28;20109;-69
2022/01/06 00:07:45;;;;;;;28.35;4.03;;;2.80;99.90;;;;;;5076199;28;20052;-69
2022/01/06 00:10:13;;;;;;;23.52;3.55;;;2.70;99.90;;;;;;5076145;28;20048;-70
2022/01/06 00:13:26;;;;;;;21.55;4.00;;;2.70;99.90;;;;;;5075958;28;20456;-68
2022/01/06 00:25:46;;;;;;;32.97;4.20;;;2.70;99.90;;;;;;5076302;28;20088;-69
2022/01/06 00:28:13;;;;;;;18.23;3.53;;;2.80;99.90;;;;;;5058274;28;20774;-69
2022/01/06 00:30:40;;;;;;;17.60;3.65;;;2.90;99.90;;;;;;5058482;28;20124;-68
2022/01/06 00:33:06;;;;;;;30.08;3.33;;;2.90;99.90;;;;;;5075255;28;20068;-68
2022/01/06 00:35:32;;;;;;;18.55;2.95;;;3.00;99.90;;;;;;5075643;28;20064;-68
2022/01/06 00:37:57;;;;;;;15.90;2.95;;;3.00;99.90;;;;;;5075719;28;20072;-69
2022/01/06 00:40:23;;;;;;;22.00;2.80;;;3.00;99.90;;;;;;5075743;28;20076;-69
2022/01/06 00:42:48;;;;;;;20.13;2.47;;;3.10;99.90;;;;;;5058038;28;20059;-68
2022/01/06 00:45:14;;;;;;;22.73;2.95;;;3.00;99.90;;;;;;5057936;28;20453;-69
2022/01/06 00:47:40;;;;;;;16.63;3.15;;;3.00;99.90;;;;;;5057760;28;20476;-68
2022/01/06 00:50:06;;;;;;;12.35;2.35;;;3.00;99.90;;;;;;5075373;28;20131;-67
2022/01/06 00:52:33;;;;;;;21.25;3.30;;;3.00;99.90;;;;;;5075457;28;20082;-68
2022/01/06 00:54:58;;;;;;;20.77;3.25;;;2.90;99.90;;;;;;5075262;28;20437;-71
2022/01/06 00:57:24;;;;;;;13.35;2.38;;;2.90;99.90;;;;;;5058246;28;20131;-71
2022/01/06 00:59:49;;;;;;;17.42;2.45;;;2.90;99.90;;;;;;5075098;28;20049;-70
2022/01/06 01:02:15;;;;;;;21.00;2.83;;;2.90;99.90;;;;;;5058071;28;20048;-69
2022/01/06 01:04:40;;;;;;;23.40;2.83;;;2.90;99.90;;;;;;5075075;28;20343;-69
2022/01/06 01:07:06;;;;;;;19.52;2.90;;;2.80;99.90;;;;;;5075542;28;20440;-68
2022/01/06 01:09:31;;;;;;;15.57;2.42;;;2.80;99.90;;;;;;5075350;28;20044;-71
2022/01/06 01:12:02;;;;;;;17.85;2.90;;;2.70;99.90;;;;;;5075036;28;20048;-69
2022/01/06 01:14:31;;;;;;;18.00;2.65;;;2.70;99.90;;;;;;5075499;28;20368;-69
2022/01/06 01:16:59;;;;;;;14.48;2.58;;;2.60;99.90;;;;;;5075001;28;20056;-69
2022/01/06 01:19:26;;;;;;;20.67;2.90;;;2.50;99.90;;;;;;5074395;28;20457;-70
2022/01/06 01:21:53;;;;;;;14.38;3.05;;;2.40;99.90;;;;;;5057719;28;20056;-68
2022/01/06 01:24:19;;;;;;;12.13;2.42;;;2.40;99.90;;;;;;5075196;28;20079;-70
2022/01/06 01:26:46;;;;;;;15.43;3.08;;;2.30;99.90;;;;;;5074949;28;20512;-69
2022/01/06 01:29:17;;;;;;;15.23;2.80;;;2.20;99.90;;;;;;5075067;28;20056;-68
2022/01/06 01:31:47;;;;;;;15.25;2.63;;;2.10;99.90;;;;;;5074758;28;20385;-69
2022/01/06 01:34:15;;;;;;;16.05;2.65;;;2.10;99.90;;;;;;5074926;28;20055;-69
2022/01/06 01:36:43;;;;;;;14.98;2.28;;;2.00;99.90;;;;;;5074706;28;20045;-70
2022/01/06 01:39:09;;;;;;;15.20;3.08;;;1.90;99.90;;;;;;5057422;28;20520;-69
2022/01/06 01:41:35;;;;;;;17.33;2.70;;;1.90;99.90;;;;;;5057627;28;20080;-70
2022/01/06 01:44:04;;;;;;;28.95;3.25;;;2.20;99.90;;;;;;5057230;28;20133;-69
2022/01/06 01:46:30;;;;;;;12.05;2.47;;;1.70;99.90;;;;;;5074711;28;20052;-69
2022/01/06 01:49:12;;;;;;;16.33;2.75;;;1.70;99.90;;;;;;5074260;28;20039;-68
2022/01/06 01:51:37;;;;;;;21.45;3.28;;;1.60;99.90;;;;;;5057146;28;20126;-70
2022/01/06 01:54:03;;;;;;;15.73;2.40;;;1.60;99.90;;;;;;5057074;28;20049;-69
2022/01/06 01:56:29;;;;;;;23.42;3.45;;;1.50;99.90;;;;;;5074791;28;20041;-69
2022/01/06 01:58:55;;;;;;;21.25;2.80;;;1.50;99.90;;;;;;5074448;28;20056;-68
2022/01/06 02:01:21;;;;;;;21.10;3.17;;;1.50;99.90;;;;;;5075047;28;20058;-69
2022/01/06 02:03:47;;;;;;;26.20;2.70;;;1.60;99.90;;;;;;5074913;28;20064;-69
2022/01/06 02:06:12;;;;;;;21.63;3.67;;;1.60;99.90;;;;;;5074769;28;20063;-69
2022/01/06 02:08:38;;;;;;;22.45;3.30;;;1.60;99.90;;;;;;5074663;28;20102;-71
2022/01/06 02:11:03;;;;;;;24.17;3.45;;;1.60;99.90;;;;;;5075255;28;20047;-69
2022/01/06 02:13:30;;;;;;;22.58;3.53;;;1.70;99.90;;;;;;5078241;28;20123;-69
2022/01/06 02:16:01;;;;;;;16.02;3.00;;;1.70;99.90;;;;;;5078321;28;20052;-69
2022/01/06 02:18:28;;;;;;;29.85;3.42;;;1.70;99.90;;;;;;5077801;28;20036;-69
2022/01/06 02:20:55;;;;;;;21.23;3.00;;;1.70;99.90;;;;;;5078526;28;20055;-69
2022/01/06 02:23:24;;;;;;;28.92;3.05;;;1.80;99.90;;;;;;5078362;28;20135;-70
2022/01/06 02:25:49;;;;;;;18.45;4.05;;;1.90;99.90;;;;;;5078217;28;20134;-69
2022/01/06 02:28:22;;;;;;;23.23;3.00;;;1.90;99.90;;;;;;5078628;28;20098;-69
2022/01/06 02:30:50;;;;;;;31.48;3.63;;;1.80;99.90;;;;;;5078597;28;20045;-67
2022/01/06 02:33:16;;;;;;;24.15;3.30;;;1.90;99.90;;;;;;5078591;28;20377;-69
2022/01/06 02:35:42;;;;;;;24.00;3.47;;;1.90;99.90;;;;;;5060370;28;20052;-69
2022/01/06 02:38:10;;;;;;;19.33;2.92;;;1.90;99.90;;;;;;5078237;28;20098;-67
2022/01/06 02:40:35;;;;;;;23.92;3.50;;;1.90;99.90;;;;;;5077611;28;20060;-69
2022/01/06 02:43:03;;;;;;;18.55;3.20;;;2.00;99.90;;;;;;5060073;28;20044;-70
2022/01/06 02:45:30;;;;;;;16.52;3.08;;;2.20;99.90;;;;;;5078241;28;20049;-69
2022/01/06 02:47:57;;;;;;;15.75;3.70;;;2.10;99.90;;;;;;5077795;28;20044;-69
2022/01/06 02:50:24;;;;;;;17.05;3.03;;;2.20;99.90;;;;;;5077369;28;20127;-69
2022/01/06 02:52:50;;;;;;;22.48;3.17;;;2.20;99.90;;;;;;5077759;28;20168;-69
2022/01/06 02:55:16;;;;;;;22.48;3.15;;;2.20;99.90;;;;;;5077687;28;20060;-68
2022/01/06 02:57:43;;;;;;;22.15;3.08;;;2.20;99.90;;;;;;5060153;28;20040;-69
2022/01/06 03:00:15;;;;;;;21.33;3.58;;;2.10;99.90;;;;;;5077994;28;20154;-70
2022/01/06 03:02:42;;;;;;;21.52;3.08;;;2.10;99.90;;;;;;5076196;28;20098;-68
2022/01/06 03:05:09;;;;;;;20.88;3.58;;;2.10;99.90;;;;;;5077491;28;20053;-69
2022/01/06 03:07:35;;;;;;;24.83;3.35;;;2.00;99.90;;;;;;5059599;28;20052;-71
2022/01/06 03:10:03;;;;;;;26.27;3.90;;;2.00;99.90;;;;;;5189127;22;20083;-69
2022/01/06 03:12:34;;;;;;;21.88;3.40;;;2.00;99.90;;;;;;5039538;28;20049;-68
2022/01/06 03:15:00;;;;;;;25.67;3.88;;;1.90;99.90;;;;;;5040475;28;20053;-68
2022/01/06 03:17:26;;;;;;;24.75;3.15;;;1.90;99.90;;;;;;5057724;28;20357;-68
2022/01/06 03:19:51;;;;;;;24.05;3.70;;;1.90;99.90;;;;;;5057482;28;20045;-69
2022/01/06 03:22:17;;;;;;;22.15;3.35;;;1.80;99.90;;;;;;5056878;28;20068;-69
2022/01/06 03:24:43;;;;;;;20.58;3.60;;;1.80;99.90;;;;;;5039627;28;20053;-69
2022/01/06 03:27:08;;;;;;;32.20;3.60;;;1.70;99.90;;;;;;5040058;28;20059;-69
2022/01/06 03:29:34;;;;;;;18.98;2.97;;;1.70;99.90;;;;;;5023142;28;20056;-70
2022/01/06 03:32:00;;;;;;;22.35;3.45;;;1.70;99.90;;;;;;5056708;28;20361;-69
2022/01/06 03:34:30;;;;;;;24.92;3.33;;;1.70;99.90;;;;;;5057440;28;20045;-69
2022/01/06 03:36:56;;;;;;;26.05;2.95;;;1.60;99.90;;;;;;5056992;28;20061;-69
2022/01/06 03:39:22;;;;;;;15.60;2.80;;;1.50;99.90;;;;;;5063337;28;20067;-70
2022/01/06 03:41:47;;;;;;;21.60;3.40;;;1.50;99.90;;;;;;5077303;28;20453;-69
2022/01/06 03:44:13;;;;;;;20.27;2.80;;;1.40;99.90;;;;;;5076922;28;20486;-68
2022/01/06 03:46:38;;;;;;;24.90;3.70;;;1.40;99.90;;;;;;5076779;28;20456;-70
2022/01/06 03:49:04;;;;;;;16.85;2.83;;;1.30;99.90;;;;;;5076845;28;20452;-69
2022/01/06 03:51:30;;;;;;;20.65;2.92;;;1.30;99.90;;;;;;5059154;28;20107;-69
2022/01/06 03:53:55;;;;;;;19.88;2.95;;;1.20;99.90;;;;;;5077059;28;20045;-69
2022/01/06 03:56:21;;;;;;;20.02;3.00;;;1.40;99.90;;;;;;5076287;28;20051;-69
2022/01/06 03:58:48;;;;;;;24.77;3.33;;;1.10;99.90;;;;;;5069751;28;20049;-70
2022/01/06 04:01:14;;;;;;;26.05;2.97;;;1.00;99.90;;;;;;5069202;28;20364;-69
2022/01/06 04:03:40;;;;;;;21.73;3.10;;;1.00;99.90;;;;;;5076205;28;20045;-69
2022/01/06 04:06:05;;;;;;;23.60;3.28;;;0.90;99.90;;;;;;5076694;28;20519;-69
2022/01/06 04:08:31;;;;;;;17.83;2.50;;;0.80;99.90;;;;;;5076174;28;20440;-69
2022/01/06 04:10:56;;;;;;;22.05;2.75;;;0.80;99.90;;;;;;5057281;28;20504;-70
2022/01/06 04:13:23;;;;;;;21.50;3.00;;;0.80;99.90;;;;;;5076441;28;20448;-70
2022/01/06 04:15:49;;;;;;;18.80;2.75;;;0.70;99.90;;;;;;5076306;28;20055;-69
2022/01/06 04:18:15;;;;;;;18.50;2.47;;;0.70;99.90;;;;;;5076108;28;20033;-69
2022/01/06 04:20:40;;;;;;;20.45;2.42;;;0.60;99.90;;;;;;5058507;28;20044;-68
2022/01/06 04:23:06;;;;;;;23.23;3.88;;;0.60;99.90;;;;;;5057427;28;20059;-71
2022/01/06 04:25:32;;;;;;;19.55;2.60;;;0.50;99.90;;;;;;5056467;28;20124;-70
2022/01/06 04:27:57;;;;;;;20.13;3.25;;;0.50;99.90;;;;;;5056154;28;20078;-70
2022/01/06 04:30:23;;;;;;;30.17;3.13;;;0.50;99.90;;;;;;5056051;28;20496;-70
2022/01/06 04:32:48;;;;;;;21.30;2.70;;;0.50;99.90;;;;;;5038349;28;20152;-69
2022/01/06 04:35:14;;;;;;;20.25;3.15;;;0.50;99.90;;;;;;5055248;28;20523;-70
2022/01/06 04:37:40;;;;;;;17.40;2.80;;;0.40;99.90;;;;;;5039163;28;20091;-69
2022/01/06 04:40:07;;;;;;;27.27;3.00;;;0.80;99.90;;;;;;5066952;28;20044;-70
2022/01/06 04:42:33;;;;;;;18.85;2.72;;;0.30;99.90;;;;;;5076140;28;20045;-70
2022/01/06 04:44:59;;;;;;;16.85;2.60;;;0.30;99.90;;;;;;5075893;28;20075;-70
2022/01/06 04:47:24;;;;;;;24.23;2.95;;;0.20;99.90;;;;;;5075516;28;20041;-69
2022/01/06 04:49:50;;;;;;;16.95;2.92;;;0.20;99.90;;;;;;5075536;28;20048;-70
2022/01/06 04:52:16;;;;;;;15.75;3.00;;;0.10;99.90;;;;;;5058655;28;20472;-68
2022/01/06 04:54:42;;;;;;;16.83;3.17;;;0.10;99.90;;;;;;5075464;28;20051;-69
2022/01/06 04:57:07;;;;;;;21.67;3.55;;;0.10;99.90;;;;;;5058301;28;20123;-71
2022/01/06 04:59:33;;;;;;;15.63;3.20;;;0.00;99.90;;;;;;5075403;28;20092;-69
2022/01/06 05:01:58;;;;;;;17.40;3.28;;;0.00;99.90;;;;;;5057913;28;20403;-68
2022/01/06 05:04:24;;;;;;;26.60;4.35;;;0.00;99.90;;;;;;5075508;28;20076;-69
2022/01/06 05:06:53;;;;;;;37.50;4.45;;;0.00;99.90;;;;;;5075193;28;20055;-68
2022/01/06 05:09:19;;;;;;;28.73;3.58;;;-0.10;99.90;;;;;;5046224;28;20096;-69
2022/01/06 05:11:45;;;;;;;22.75;3.33;;;-0.10;99.90;;;;;;5035237;28;20069;-69
2022/01/06 05:14:10;;;;;;;31.65;4.22;;;-0.10;99.90;;;;;;5035717;28;20041;-69
2022/01/06 05:16:36;;;;;;;29.17;3.47;;;-0.10;99.90;;;;;;5035357;28;20041;-69
2022/01/06 05:19:02;;;;;;;19.55;3.17;;;-0.10;99.90;;;;;;5035149;28;20099;-69
2022/01/06 05:21:31;;;;;;;23.50;3.78;;;-0.10;99.90;;;;;;5038389;28;20052;-71
2022/01/06 05:23:57;;;;;;;18.00;2.90;;;-0.10;99.90;;;;;;5024973;28;20075;-69
2022/01/06 05:26:23;;;;;;;20.55;2.78;;;-0.20;99.90;;;;;;5054744;28;20055;-69
2022/01/06 05:28:49;;;;;;;16.58;2.60;;;-0.20;99.90;;;;;;5037264;28;20457;-70
2022/01/06 05:31:15;;;;;;;20.05;2.80;;;-0.20;99.90;;;;;;5054804;28;20037;-70
2022/01/06 05:33:41;;;;;;;19.80;3.03;;;-0.20;99.90;;;;;;5054697;28;20119;-70
2022/01/06 05:36:06;;;;;;;31.70;3.28;;;-0.30;99.90;;;;;;5055048;28;20033;-70
2022/01/06 05:38:32;;;;;;;18.63;2.60;;;-0.20;99.90;;;;;;5055303;28;20052;-69
2022/01/06 05:40:58;;;;;;;19.35;2.95;;;-0.30;99.90;;;;;;5055864;28;20056;-69
2022/01/06 05:43:24;;;;;;;17.73;3.80;;;-0.30;99.90;;;;;;5075453;28;20072;-70
2022/01/06 05:45:56;;;;;;;24.02;3.40;;;-0.30;99.90;;;;;;5074863;28;20044;-69
2022/01/06 05:48:22;;;;;;;15.70;3.60;;;-0.30;99.90;;;;;;5017537;28;20053;-71
2022/01/06 05:50:48;;;;;;;23.55;3.38;;;-0.30;99.90;;;;;;5070350;28;20044;-71
2022/01/06 05:53:15;;;;;;;21.38;3.30;;;-0.30;99.90;;;;;;5074734;28;20132;-71
2022/01/06 05:55:41;;;;;;;15.02;3.15;;;-0.30;99.90;;;;;;5074809;28;20098;-69
2022/01/06 05:58:06;;;;;;;19.17;3.00;;;0.20;99.90;;;;;;5074839;28;20056;-69
2022/01/06 06:00:32;;;;;;;29.65;3.55;;;-0.40;99.90;;;;;;5076588;28;20083;-69
2022/01/06 06:02:57;;;;;;;18.70;2.92;;;-0.40;99.90;;;;;;5070462;28;20036;-69
2022/01/06 06:05:24;;;;;;;19.15;3.15;;;-0.40;99.90;;;;;;5074955;28;20072;-71
2022/01/06 06:07:50;;;;;;;24.75;3.28;;;-0.40;99.90;;;;;;5074571;28;20076;-70
2022/01/06 06:10:15;;;;;;;37.17;3.47;;;-0.40;99.90;;;;;;5074671;28;20095;-69
2022/01/06 06:12:41;;;;;;;18.42;3.47;;;-0.50;99.90;;;;;;5057196;28;20052;-69
2022/01/06 06:15:07;;;;;;;19.40;3.17;;;-0.50;99.90;;;;;;5074701;28;20431;-70
2022/01/06 06:17:33;;;;;;;20.02;3.58;;;-0.50;99.90;;;;;;5074802;28;20127;-68
2022/01/06 06:19:58;;;;;;;14.52;3.85;;;-0.50;99.90;;;;;;5035683;28;20265;-66
2022/01/06 06:22:24;;;;;;;23.25;3.97;;;-0.50;99.90;;;;;;5054368;28;20060;-68
2022/01/06 06:24:49;;;;;;;19.58;3.33;;;-0.50;99.90;;;;;;5036859;28;20049;-69
2022/01/06 06:27:15;;;;;;;27.40;5.03;;;-0.50;99.90;;;;;;5054452;28;20041;-68
2022/01/06 06:29:41;;;;;;;21.48;3.95;;;-0.60;99.90;;;;;;5054493;28;20049;-69
2022/01/06 06:32:06;;;;;;;21.95;6.18;;;-0.60;99.90;;;;;;5054019;28;20047;-68
2022/01/06 06:34:32;;;;;;;26.60;6.80;;;-0.60;99.90;;;;;;5041518;28;20045;-69
2022/01/06 06:36:57;;;;;;;27.48;6.45;;;-0.60;99.90;;;;;;5036697;28;20057;-69
2022/01/06 06:39:23;;;;;;;22.52;5.10;;;-0.60;99.90;;;;;;5055238;28;20051;-67
2022/01/06 06:41:49;;;;;;;24.27;5.32;;;-0.40;99.90;;;;;;5056737;28;20084;-68
2022/01/06 06:44:14;;;;;;;22.83;4.97;;;-0.60;99.90;;;;;;5073965;28;20364;-69
2022/01/06 06:46:40;;;;;;;22.85;4.57;;;-0.60;99.90;;;;;;5053449;28;20527;-69
2022/01/06 06:49:05;;;;;;;21.23;5.50;;;-0.60;99.90;;;;;;5054101;28;20048;-69
2022/01/06 06:51:31;;;;;;;21.88;5.93;;;-0.60;99.90;;;;;;5035145;28;20382;-69
2022/01/06 06:53:56;;;;;;;27.63;5.38;;;-0.60;99.90;;;;;;5050793;28;20131;-70
2022/01/06 06:56:22;;;;;;;25.83;5.25;;;-0.60;99.90;;;;;;5059652;28;20040;-70
2022/01/06 06:58:48;;;;;;;17.98;4.90;;;-0.60;99.90;;;;;;5074414;28;20048;-69
2022/01/06 07:01:14;;;;;;;25.20;4.55;;;-0.60;99.90;;;;;;5039921;28;20129;-70
2022/01/06 07:03:39;;;;;;;22.02;4.07;;;-0.60;99.90;;;;;;5067472;28;20372;-69
2022/01/06 07:06:05;;;;;;;16.52;4.03;;;-0.70;99.90;;;;;;5040378;28;20098;-69
2022/01/06 07:08:30;;;;;;;30.25;4.50;;;-0.70;99.90;;;;;;5058299;28;20052;-70
2022/01/06 07:10:56;;;;;;;15.07;3.65;;;-0.70;99.90;;;;;;5077419;28;20083;-68
2022/01/06 07:13:21;;;;;;;24.00;4.13;;;-0.70;99.90;;;;;;5077686;28;20061;-69
2022/01/06 07:15:47;;;;;;;22.63;3.97;;;-0.70;99.90;;;;;;5068135;28;20438;-69
2022/01/06 07:18:13;;;;;;;24.23;4.43;;;-0.70;99.90;;;;;;5049442;28;20404;-70
2022/01/06 07:20:39;;;;;;;17.10;3.50;;;-0.70;99.90;;;;;;5048333;28;20055;-69
2022/01/06 07:23:05;;;;;;;35.22;4.82;;;-0.80;99.90;;;;;;5052108;28;20368;-69
2022/01/06 07:25:30;;;;;;;23.05;4.35;;;-0.70;99.90;;;;;;5067152;28;20043;-68
2022/01/06 07:27:57;;;;;;;22.67;4.20;;;-0.80;99.90;;;;;;5059782;28;20384;-68
2022/01/06 07:30:24;;;;;;;20.38;3.72;;;-0.80;99.90;;;;;;5077129;28;20048;-67
2022/01/06 07:32:51;;;;;;;23.23;3.67;;;-0.80;99.90;;;;;;5070177;28;20139;-69
2022/01/06 07:35:18;;;;;;;22.08;3.60;;;-0.80;99.90;;;;;;5057338;28;20413;-69
2022/01/06 07:37:44;;;;;;;29.15;4.60;;;-0.80;99.90;;;;;;5056907;28;20088;-68
2022/01/06 07:40:10;;;;;;;29.25;4.40;;;-0.80;99.90;;;;;;5039318;28;20420;-68
2022/01/06 07:42:36;;;;;;;21.20;3.55;;;-0.80;99.90;;;;;;5056836;28;20055;-68
2022/01/06 07:45:04;;;;;;;18.85;3.80;;;-0.80;99.90;;;;;;5039333;28;20095;-66
2022/01/06 07:47:31;;;;;;;16.65;3.88;;;-0.80;99.90;;;;;;5039154;28;20048;-69
2022/01/06 07:49:57;;;;;;;23.92;4.40;;;-0.80;99.90;;;;;;5056705;28;20049;-70
2022/01/06 07:52:23;;;;;;;27.00;5.05;;;-0.80;99.90;;;;;;5056643;28;20040;-68
2022/01/06 07:54:49;;;;;;;17.10;3.47;;;-0.80;99.90;;;;;;5056793;28;20060;-68
2022/01/06 07:57:14;;;;;;;23.80;4.80;;;-0.80;99.90;;;;;;5056749;28;20045;-69
2022/01/06 07:59:41;;;;;;;24.33;4.97;;;-0.80;99.90;;;;;;5056714;28;20037;-67
2022/01/06 08:02:07;;;;;;;26.80;4.15;;;-0.80;99.90;;;;;;5056405;28;20361;-67
2022/01/06 08:04:33;;;;;;;24.95;3.83;;;-0.80;99.90;;;;;;5056538;28;20059;-69
2022/01/06 08:06:59;;;;;;;24.70;4.35;;;-0.80;99.90;;;;;;5056448;28;20053;-69
2022/01/06 08:09:25;;;;;;;22.67;4.78;;;-0.80;99.90;;;;;;5018092;28;20049;-69
2022/01/06 08:11:50;;;;;;;21.02;4.72;;;-0.80;99.90;;;;;;5054637;28;20368;-68
2022/01/06 08:14:16;;;;;;;32.15;4.88;;;-0.80;99.90;;;;;;5038847;28;20206;-67
2022/01/06 08:16:42;;;;;;;21.70;4.35;;;-0.80;99.90;;;;;;5056137;28;20045;-67
2022/01/06 08:19:07;;;;;;;16.73;4.38;;;-0.80;99.90;;;;;;5056644;28;20052;-67
2022/01/06 08:21:33;;;;;;;32.30;4.68;;;-0.60;99.90;;;;;;5056187;28;20052;-67
2022/01/06 08:23:58;;;;;;;24.02;4.85;;;-0.70;99.90;;;;;;5055986;28;20049;-68
2022/01/06 08:26:24;;;;;;;20.60;4.43;;;-0.80;99.90;;;;;;5060835;28;20445;-67
2022/01/06 08:28:50;;;;;;;28.15;4.97;;;-0.70;99.90;;;;;;5075559;28;20449;-68
2022/01/06 08:31:16;;;;;;;18.60;4.03;;;-0.70;99.90;;;;;;5075876;28;20048;-68
2022/01/06 08:33:42;;;;;;;21.95;4.22;;;-0.70;99.90;;;;;;5075554;28;20506;-68
2022/01/06 08:36:08;;;;;;;22.75;4.38;;;-0.60;99.90;;;;;;5075975;28;20075;-67
2022/01/06 08:38:34;;;;;;;24.10;4.50;;;-0.60;99.90;;;;;;5075845;28;20040;-67
2022/01/06 08:40:59;;;;;;;27.80;4.45;;;-0.60;99.90;;;;;;5075837;28;20070;-67
2022/01/06 08:43:27;;;;;;;26.27;4.57;;;-0.60;99.90;;;;;;5058140;28;20056;-68
2022/01/06 08:45:57;;;;;;;22.20;4.03;;;-0.50;99.90;;;;;;5055994;28;20052;-66
2022/01/06 08:48:24;;;;;;;28.65;4.55;;;-0.50;99.90;;;;;;5055216;28;20457;-68
2022/01/06 08:50:49;;;;;;;18.23;3.53;;;-0.40;99.90;;;;;;5038194;28;20449;-68
2022/01/06 08:53:15;;;;;;;24.00;3.85;;;-0.40;99.90;;;;;;5054800;28;20063;-69
2022/01/06 08:55:41;;;;;;;21.88;4.95;;;-0.30;99.90;;;;;;5035640;28;20469;-68
2022/01/06 08:58:06;;;;;;;28.10;4.53;;;-0.30;99.90;;;;;;5072709;28;20456;-69
2022/01/06 09:00:33;;;;;;;25.45;4.57;;;-0.30;99.90;;;;;;5075154;28;20052;-70
2022/01/06 09:02:59;;;;;;;27.02;4.72;;;-0.20;99.90;;;;;;5048268;28;20052;-70
2022/01/06 09:05:25;;;;;;;15.52;3.60;;;-0.20;99.90;;;;;;5054942;28;20099;-68
2022/01/06 09:07:50;;;;;;;26.95;4.13;;;-0.20;99.90;;;;;;5047834;28;20516;-68
2022/01/06 09:10:16;;;;;;;27.02;6.45;;;-0.10;99.90;;;;;;5071354;28;20052;-68
2022/01/06 09:12:42;;;;;;;20.42;6.05;;;0.00;99.90;;;;;;5040204;28;20056;-70
2022/01/06 09:15:09;;;;;;;26.30;6.22;;;0.00;99.90;;;;;;5055257;28;20387;-71
2022/01/06 09:17:36;;;;;;;27.17;6.60;;;0.50;99.90;;;;;;5055053;28;20460;-70
2022/01/06 09:20:04;;;;;;;28.75;6.65;;;0.10;99.90;;;;;;5054660;28;20076;-69
2022/01/06 09:22:29;;;;;;;21.67;5.75;;;0.10;99.90;;;;;;5054741;28;20091;-66
2022/01/06 09:24:55;;;;;;;31.60;6.20;;;0.20;99.90;;;;;;5055064;28;20084;-69
2022/01/06 09:27:21;;;;;;;30.83;6.15;;;0.20;99.90;;;;;;5053805;28;20047;-68
2022/01/06 09:29:46;;;;;;;23.90;6.07;;;0.30;99.90;;;;;;5035154;28;20053;-68
2022/01/06 09:32:12;;;;;;;33.95;5.85;;;0.30;99.90;;;;;;5035430;28;20053;-68
2022/01/06 09:34:37;;;;;;;25.33;5.90;;;0.30;99.90;;;;;;5034820;28;20037;-67
2022/01/06 09:37:03;;;;;;;31.42;5.45;;;0.30;99.90;;;;;;5033943;28;20041;-69
2022/01/06 09:39:30;;;;;;;26.88;5.10;;;0.30;99.90;;;;;;5033768;28;20107;-68
2022/01/06 09:41:55;;;;;;;29.00;5.55;;;0.40;99.90;;;;;;5016603;28;20116;-69
2022/01/06 09:44:22;;;;;;;29.35;5.43;;;0.40;99.90;;;;;;5017051;28;20490;-68
2022/01/06 09:46:48;;;;;;;21.65;5.80;;;0.40;99.90;;;;;;5016742;28;20420;-67
2022/01/06 09:49:14;;;;;;;30.88;4.88;;;0.50;99.90;;;;;;5033747;28;20033;-71
2022/01/06 09:51:40;;;;;;;27.00;5.20;;;0.50;99.90;;;;;;5034182;28;20057;-70
2022/01/06 09:54:07;;;;;;;26.77;5.10;;;0.60;99.90;;;;;;5033548;28;20088;-69
2022/01/06 09:56:32;;;;;;;30.45;5.68;;;0.60;99.90;;;;;;5021870;28;20116;-70
2022/01/06 09:58:58;;;;;;;28.02;5.00;;;0.80;99.90;;;;;;5035322;28;20436;-70
2022/01/06 10:01:24;;;;;;;26.58;4.57;;;0.70;99.90;;;;;;5053433;28;20052;-71
2022/01/06 10:03:50;;;;;;;28.05;4.43;;;0.80;99.90;;;;;;5053225;28;20055;-70
2022/01/06 10:06:19;;;;;;;26.65;5.38;;;0.80;99.90;;;;;;5053441;28;20368;-67
2022/01/06 10:09:04;;;;;;;25.77;4.90;;;0.80;99.90;;;;;;5053267;28;20079;-68
2022/01/06 10:11:32;;;;;;;26.45;4.45;;;1.40;99.90;;;;;;5054461;28;20132;-68
2022/01/06 10:14:10;;;;;;;20.98;4.47;;;0.90;99.90;;;;;;5052279;28;20052;-67
2022/01/06 10:16:40;;;;;;;25.75;4.68;;;0.90;99.90;;;;;;5012220;28;20050;-68
2022/01/06 10:19:10;;;;;;;28.13;5.47;;;1.00;99.90;;;;;;5012619;28;20050;-69
2022/01/06 10:21:56;;;;;;;22.90;4.60;;;1.10;99.90;;;;;;5012753;28;20369;-68
2022/01/06 10:24:26;;;;;;;27.67;4.18;;;1.10;99.90;;;;;;5005960;28;20064;-69
2022/01/06 10:27:07;;;;;;;21.73;4.40;;;1.10;99.90;;;;;;5007921;28;20187;-68
2022/01/06 10:29:44;;;;;;;26.85;4.75;;;1.20;99.90;;;;;;5036659;28;20464;-68
2022/01/06 10:32:19;;;;;;;31.73;4.80;;;1.20;99.90;;;;;;5037034;28;20092;-70
2022/01/06 10:34:53;;;;;;;23.17;4.03;;;1.30;99.90;;;;;;5057512;28;20041;-69
2022/01/06 10:37:24;;;;;;;30.15;4.72;;;1.30;99.90;;;;;;5057344;28;20037;-68
2022/01/06 10:39:52;;;;;;;30.13;4.63;;;1.40;99.90;;;;;;5057584;28;20073;-69
2022/01/06 10:42:22;;;;;;;27.73;4.15;;;1.40;99.90;;;;;;5057443;28;20041;-70
2022/01/06 10:44:59;;;;;;;25.50;4.97;;;1.50;99.90;;;;;;5057209;28;20044;-70
2022/01/06 10:47:29;;;;;;;23.00;4.90;;;1.50;99.90;;;;;;5056988;28;20048;-69
2022/01/06 10:50:18;;;;;;;33.35;5.05;;;1.60;99.90;;;;;;5057317;28;20049;-70
2022/01/06 10:52:50;;;;;;;25.88;4.72;;;1.60;99.90;;;;;;5004525;28;20115;-70
2022/01/06 10:55:23;;;;;;;31.07;4.87;;;1.60;99.90;;;;;;5039681;28;20049;-69
2022/01/06 10:58:04;;;;;;;23.73;4.93;;;1.70;99.90;;;;;;5038406;28;20488;-70
2022/01/06 11:00:45;;;;;;;27.17;5.50;;;1.70;99.90;;;;;;5036908;28;20070;-70
2022/01/06 11:03:22;;;;;;;33.53;4.50;;;1.70;99.90;;;;;;5017241;28;20060;-70
2022/01/06 11:05:53;;;;;;;22.52;4.60;;;1.80;99.90;;;;;;5025902;28;20107;-68
2022/01/06 11:08:24;;;;;;;22.23;4.82;;;1.90;99.90;;;;;;5034759;28;20053;-69
2022/01/06 11:11:03;;;;;;;31.30;4.53;;;1.90;99.90;;;;;;5074655;28;20052;-67
2022/01/06 11:13:33;;;;;;;29.13;4.90;;;2.00;99.90;;;;;;5076716;28;20123;-68
2022/01/06 11:15:59;;;;;;;29.95;5.00;;;2.10;99.90;;;;;;5076761;28;20041;-68
2022/01/06 11:18:25;;;;;;;39.08;5.40;;;2.20;99.90;;;;;;5059075;28;20048;-69
2022/01/06 11:21:00;;;;;;;25.55;5.05;;;2.30;99.90;;;;;;5059118;28;20052;-70
2022/01/06 11:23:26;;;;;;;23.77;4.85;;;2.30;99.90;;;;;;5077258;28;20482;-69
2022/01/06 11:26:11;;;;;;;30.70;5.57;;;2.40;99.90;;;;;;5067520;28;20077;-68
2022/01/06 11:28:37;;;;;;;23.27;5.20;;;2.40;99.90;;;;;;5055978;28;20079;-68
2022/01/06 11:31:21;;;;;;;38.03;4.57;;;2.50;99.90;;;;;;5047668;28;20111;-69
2022/01/06 11:33:49;;;;;;;25.80;5.13;;;2.60;99.90;;;;;;5036612;28;20059;-68
2022/01/06 11:36:35;;;;;;;30.08;4.30;;;2.70;99.90;;;;;;5055747;28;20157;-69
2022/01/06 11:39:04;;;;;;;25.08;4.05;;;2.70;99.90;;;;;;5055628;28;20081;-67
2022/01/06 11:41:34;;;;;;;24.00;4.55;;;3.10;99.90;;;;;;5056304;28;20051;-69
2022/01/06 11:44:02;;;;;;;23.08;4.53;;;2.90;99.90;;;;;;5056485;28;20064;-69
2022/01/06 11:46:43;;;;;;;37.42;5.82;;;2.90;99.90;;;;;;5056152;28;20052;-69
2022/01/06 11:49:09;;;;;;;26.33;4.72;;;3.00;99.90;;;;;;5055700;28;20049;-68
2022/01/06 11:51:37;;;;;;;19.98;4.38;;;3.10;99.90;;;;;;5054854;28;20055;-68
2022/01/06 11:54:19;;;;;;;29.15;4.88;;;3.20;99.90;;;;;;5038769;28;20131;-67
2022/01/06 11:56:51;;;;;;;29.03;4.70;;;3.20;99.90;;;;;;5041325;28;20051;-68
2022/01/06 11:59:31;;;;;;;25.33;3.80;;;3.20;99.90;;;;;;5018939;28;20057;-69
2022/01/06 12:01:57;;;;;;;21.30;4.18;;;3.30;99.90;;;;;;5036364;28;20469;-67
2022/01/06 12:04:27;;;;;;;17.17;3.60;;;3.30;99.90;;;;;;5018110;28;20053;-68
2022/01/06 12:07:07;;;;;;;16.55;3.00;;;3.30;99.90;;;;;;5034882;28;20472;-68
2022/01/06 12:09:33;;;;;;;21.50;4.30;;;3.40;99.90;;;;;;5036127;28;20122;-68
2022/01/06 12:12:07;;;;;;;23.90;3.97;;;3.50;99.90;;;;;;5019121;28;20199;-66
2022/01/06 12:14:34;;;;;;;20.10;3.95;;;3.50;99.90;;;;;;5051723;28;20091;-69
2022/01/06 12:17:07;;;;;;;22.98;3.83;;;3.50;99.90;;;;;;5055189;28;20094;-70
2022/01/06 12:19:34;;;;;;;23.73;4.03;;;3.60;99.90;;;;;;5054989;28;20044;-67
2022/01/06 12:22:00;;;;;;;14.48;2.75;;;3.70;99.90;;;;;;5038629;28;20420;-68
2022/01/06 12:24:26;;;;;;;22.10;3.88;;;3.60;99.90;;;;;;5054985;28;20040;-69
2022/01/06 12:26:52;;;;;;;23.40;4.13;;;3.70;99.90;;;;;;5038187;28;20465;-70
2022/01/06 12:29:21;;;;;;;25.73;3.70;;;3.70;99.90;;;;;;5018451;28;20053;-67
2022/01/06 12:31:50;;;;;;;24.58;3.90;;;3.70;99.90;;;;;;5061032;28;20052;-70
2022/01/06 12:34:17;;;;;;;20.48;3.40;;;3.80;99.90;;;;;;5055036;28;20048;-68
2022/01/06 12:36:45;;;;;;;17.38;3.92;;;3.80;99.90;;;;;;5055141;28;20457;-67
2022/01/06 12:39:19;;;;;;;23.27;4.28;;;3.80;99.90;;;;;;5055475;28;20049;-67
2022/01/06 12:41:45;;;;;;;18.75;3.78;;;3.90;99.90;;;;;;5038039;28;20064;-67
2022/01/06 12:44:18;;;;;;;22.92;4.03;;;3.90;99.90;;;;;;5055430;28;20463;-67
2022/01/06 12:46:43;;;;;;;17.98;3.30;;;4.00;99.90;;;;;;5055299;28;20361;-67
2022/01/06 12:49:10;;;;;;;23.50;3.85;;;4.10;99.90;;;;;;5055150;28;20037;-67
2022/01/06 12:51:45;;;;;;;24.33;3.85;;;4.10;99.90;;;;;;5055305;28;20087;-69
2022/01/06 12:54:17;;;;;;;30.42;4.40;;;4.10;99.90;;;;;;5054868;28;20687;-68